Shirley Mills, ME

8:01 PM EST on February 09, 2016 (GMT -0500)
Beaver Cove Camps | | Change Station
CLOSE
Current Station
Personal Weather Station
Location: Beaver Cove, ME
Elevation: 1030 ft
Nearby Weather Stations

Elev 1030 ft 45.56 °N, 69.57 °W | Updated 15 seconds ago

Overcast
Overcast
12.9 °F
Feels Like 13 °F
N
0.0
Wind Variable Wind from NE
Gusts 0.0 mph

Today
High -- | Low -- °F
--% Chance of Precip.
Yesterday
High -- | Low -- °F
Precip. -- in
Pressure 29.64 in
Visibility 4.0 miles
Clouds Overcast 2900 ft
Windchill 13 °F
Dew Point 10 °F
Humidity 90%
Rainfall 0.00 in
Snow Depth Not available.
6:49 AM 4:55 PM
Waxing Crescent, 3% visible
METAR KMLT 100053Z AUTO 30003KT 4SM -SN OVC029 M07/M10 A2960 RMK AO2 SLP035 P0000 T10671100
Pressure 29.64 in
Visibility 4.0 miles
Clouds Overcast 2900 ft
Windchill 13 °F
Dew Point 10 °F
Humidity 90%
Rainfall 0.00 in
Snow Depth Not available.
6:49 AM 4:55 PM
Waxing Crescent, 3% visible
METAR KMLT 100053Z AUTO 30003KT 4SM -SN OVC029 M07/M10 A2960 RMK AO2 SLP035 P0000 T10671100

10-Day Weather Forecast

Almanac

Astronomy

Feb. 09, 2016 Rise Set
Actual Time
Civil Twilight
Nautical Twilight
Astronomical Twilight
Moon
Length of Visible Light
Length of Day
Tomorrow will be .
, % of the Moon is Illuminated

Today's Extremes

State Highs State Lows

Community

WunderPhotos

Upload Photos

1,891,752 photos uploaded!

WunderBlog® & News

Nearby

Air Quality

  Air Quality AQ Index Pollutant
Not available.

Snow Depth

Station Depth Elevation

Earthquake Activity

City Distance Mag. Time & Date
Minimum magnitude displayed is 2.5.

Coastal Water Temperatures

Place Temperature

Stations

Nearby Weather Stations

Station Location Temp. Windchill Dew Point Humidity Wind Precip. Elev Updated Type
                   

Watches & Warnings

There are currently no watches in effect.